Cedaredge, CO (81413)

11:29 AM MST on December 03, 2016 (GMT -0700)
Hanson RD | | Change Station

Elev 6555 ft 38.91 °N, 107.90 °W | Updated 27 seconds ago

Scattered Clouds
Scattered Clouds
28.8 °F
Feels Like 24 °F
N
4.0
Wind Variable Wind from SSW

Today
High -- | Low -- °F
--% Chance of Precip.
Yesterday
High -- | Low -- °F
Precip. -- in
Pressure 30.23 in
Visibility 10.0 miles
Clouds Scattered Clouds 3400 ft
Windchill 24 °F
Dew Point 21 °F
Humidity 71%
Rainfall 0.00 in
Snow Depth Not available.
7:13 AM 4:49 PM
Waxing Crescent, 16% visible
METAR KAJZ 031755Z AUTO 00000KT 10SM SCT034 03/M06 A3023 RMK AO2 T00251056 10025 21016
Pressure 30.23 in
Visibility 10.0 miles
Clouds Scattered Clouds 3400 ft
Windchill 24 °F
Dew Point 21 °F
Humidity 71%
Rainfall 0.00 in
Snow Depth Not available.
7:13 AM 4:49 PM
Waxing Crescent, 16% visible
METAR KAJZ 031755Z AUTO 00000KT 10SM SCT034 03/M06 A3023 RMK AO2 T00251056 10025 21016

10-Day Weather Forecast

Almanac

Astronomy

Dec. 03, 2016 Rise Set
Actual Time
Civil Twilight
Nautical Twilight
Astronomical Twilight
Moon
Length of Visible Light
Length of Day
Tomorrow will be .
, % of the Moon is Illuminated

Today's Extremes

State Highs State Lows

Community

WunderPhotos

Upload Photos

1,955,455 photos uploaded!

WunderBlog® & News

Nearby

Air Quality

  Air Quality AQ Index Pollutant
Not available.

Snow Depth

Station Depth Elevation

Earthquake Activity

City Distance Mag. Time & Date
Minimum magnitude displayed is 2.5.

Coastal Water Temperatures

Place Temperature

Stations

Nearby Weather Stations

Station Location Temp. Windchill Dew Point Humidity Wind Precip. Elev Updated Type
                   

Watches & Warnings

There are currently no watches in effect.